createdAt,value
2019-03-08T00:00:03.110Z,73.91
2019-03-08T00:05:07.794Z,74.33
2019-03-08T00:10:09.284Z,73.91
2019-03-08T00:15:07.284Z,73.78
2019-03-08T00:20:09.211Z,73.43
2019-03-08T00:25:07.605Z,73.83
2019-03-08T00:30:04.191Z,73.43
2019-03-08T00:35:09.213Z,73.8
2019-03-08T00:40:07.401Z,74.33
2019-03-08T00:45:02.961Z,74.18
2019-03-08T00:50:07.484Z,74.75
2019-03-08T00:55:07.700Z,74.59
2019-03-08T01:00:03.424Z,74.29
2019-03-08T01:05:07.436Z,74.59
2019-03-08T01:10:09.118Z,74.62
2019-03-08T01:15:03.390Z,74.76
2019-03-08T01:20:07.746Z,75.23
2019-03-08T01:25:07.268Z,75.29
2019-03-08T01:30:03.167Z,75.54
2019-03-08T01:35:07.533Z,75.47
2019-03-08T01:40:06.877Z,75.84
2019-03-08T01:45:04.590Z,75.65
2019-03-08T01:50:06.881Z,76.61
2019-03-08T01:55:05.444Z,76.97
2019-03-08T02:00:06.889Z,76.84
2019-03-08T02:05:04.535Z,77.28
2019-03-08T02:10:02.649Z,78.01
2019-03-08T02:15:06.366Z,78.14
2019-03-08T02:20:06.753Z,78.98
2019-03-08T02:25:07.760Z,79.09
2019-03-08T02:30:06.310Z,79.45
2019-03-08T02:35:09.487Z,79.56
2019-03-08T02:40:07.645Z,79.89
2019-03-08T02:45:04.525Z,79.9
2019-03-08T02:50:07.291Z,80.12
2019-03-08T02:55:07.571Z,80.3
2019-03-08T03:00:04.201Z,79.9
2019-03-08T03:05:07.321Z,79.73
2019-03-08T03:10:07.785Z,79.46
2019-03-08T03:15:04.603Z,79.83
2019-03-08T03:20:10.387Z,79.64
2019-03-08T03:25:12.141Z,79.93
2019-03-08T03:30:08.782Z,80.13
2019-03-08T03:35:13.132Z,79.99
2019-03-08T03:40:14.099Z,80.44
2019-03-08T03:45:06.105Z,81.06
2019-03-08T03:50:11.785Z,81.4
2019-03-08T03:55:09.995Z,81.61
2019-03-08T04:00:04.766Z,81.86
2019-03-08T04:05:08.430Z,81.44
2019-03-08T04:10:03.985Z,81.7
2019-03-08T04:15:04.496Z,81.76
2019-03-08T04:20:09.610Z,81.95
2019-03-08T04:25:10.156Z,82.38
2019-03-08T04:30:02.712Z,82
2019-03-08T04:35:09.950Z,82.31
2019-03-08T04:40:03.875Z,82.58
2019-03-08T04:45:03.552Z,82.88
2019-03-08T04:50:03.847Z,82.95
2019-03-08T04:55:04.613Z,83.18
2019-03-08T05:00:03.117Z,83.41
2019-03-08T05:05:04.022Z,83.61
2019-03-08T05:10:02.662Z,83.79
2019-03-08T05:15:04.491Z,84.47
2019-03-08T05:20:04.243Z,85.32
2019-03-08T05:25:05.538Z,85.63
2019-03-08T05:30:03.391Z,86.3
2019-03-08T05:35:06.256Z,87.95
2019-03-08T05:40:10.536Z,90.48
2019-03-08T05:45:04.320Z,91.19
2019-03-08T05:50:11.617Z,91.76
2019-03-08T05:55:07.545Z,93.01
2019-03-08T06:00:04.247Z,95.06
2019-03-08T06:05:09.734Z,97.53
2019-03-08T06:10:05.327Z,98.36
2019-03-08T06:15:03.767Z,95.67
2019-03-08T06:20:08.612Z,98.52
2019-03-08T06:25:07.012Z,95.73
2019-03-08T06:30:03.696Z,98.56
2019-03-08T06:35:07.501Z,96.23
2019-03-08T06:40:07.332Z,98.89
2019-03-08T06:45:04.012Z,96.26
2019-03-08T06:50:05.742Z,99.21
2019-03-08T06:55:07.728Z,98.52
2019-03-08T07:00:04.166Z,98.53
2019-03-08T07:05:06.840Z,98.64
2019-03-08T07:10:08.490Z,98.7
2019-03-08T07:15:04.067Z,98.84
2019-03-08T07:20:07.235Z,98.88
2019-03-08T07:25:10.047Z,98.89
2019-03-08T07:30:05.728Z,96.87
2019-03-08T07:35:09.666Z,96.93
2019-03-08T07:40:07.884Z,96.89
2019-03-08T07:45:04.478Z,96.77
2019-03-08T07:50:08.462Z,96.83
2019-03-08T07:55:07.847Z,96.76
2019-03-08T08:00:04.125Z,96.86
2019-03-08T08:05:07.520Z,96.7
2019-03-08T08:10:07.035Z,96.9
2019-03-08T08:15:03.717Z,98.98
2019-03-08T08:20:16.034Z,99.21
2019-03-08T08:25:08.214Z,99.36
2019-03-08T08:30:03.839Z,99
2019-03-08T08:35:07.896Z,98.7
2019-03-08T08:40:07.859Z,98.76
2019-03-08T08:45:04.524Z,98.4
2019-03-08T08:50:07.512Z,96.05
2019-03-08T08:55:07.872Z,98.53
2019-03-08T09:00:03.368Z,98.51
2019-03-08T09:05:07.734Z,97.05
2019-03-08T09:10:06.375Z,98.04
2019-03-08T09:15:03.129Z,97.93
2019-03-08T09:20:07.461Z,97.3
2019-03-08T09:25:06.556Z,96.4
2019-03-08T09:30:03.075Z,96.45
2019-03-08T09:35:07.179Z,95.64
2019-03-08T09:40:05.848Z,96.34
2019-03-08T09:45:03.374Z,96.17
2019-03-08T09:50:07.755Z,95.75
2019-03-08T09:55:06.941Z,93.7
2019-03-08T10:00:02.774Z,91.93
2019-03-08T10:05:08.628Z,88.84
2019-03-08T10:10:08.382Z,85.2
2019-03-08T10:15:02.910Z,84.08
2019-03-08T10:20:07.432Z,86.66
2019-03-08T10:25:07.553Z,83.22
2019-03-08T10:30:03.078Z,80.67
2019-03-08T10:35:06.832Z,79.58
2019-03-08T10:40:05.660Z,77.62
2019-03-08T10:45:03.282Z,78.32
2019-03-08T10:50:04.154Z,77.08
2019-03-08T10:55:05.091Z,76.23
2019-03-08T11:00:03.236Z,74.71
2019-03-08T11:05:05.676Z,72.23
2019-03-08T11:10:10.272Z,73.66
2019-03-08T11:15:04.235Z,72.24
2019-03-08T11:20:09.576Z,71.92
2019-03-08T11:25:11.519Z,73.09
2019-03-08T11:30:04.177Z,73.68
2019-03-08T11:35:08.090Z,72.43
2019-03-08T11:40:07.295Z,74.53
2019-03-08T11:45:04.341Z,75.91
2019-03-08T11:50:07.343Z,76.83
2019-03-08T11:55:07.018Z,75.1
2019-03-08T12:00:03.726Z,73.01
2019-03-08T12:05:07.270Z,69.23
2019-03-08T12:10:06.887Z,65.32
2019-03-08T12:15:04.495Z,67.54
2019-03-08T12:20:07.879Z,67.61
2019-03-08T12:25:07.428Z,68.93
2019-03-08T12:30:05.695Z,68.12
2019-03-08T12:35:07.132Z,68.57
2019-03-08T12:40:06.984Z,68.08
2019-03-08T12:45:03.592Z,67.71
2019-03-08T12:50:07.231Z,67.93
2019-03-08T12:55:06.922Z,65.87
2019-03-08T13:00:03.873Z,66.55
2019-03-08T13:05:08.164Z,64.82
2019-03-08T13:10:08.088Z,64.94
2019-03-08T13:15:03.686Z,65.82
2019-03-08T13:20:07.880Z,65.78
2019-03-08T13:25:08.852Z,62.26
2019-03-08T13:30:03.943Z,64.06
2019-03-08T13:35:08.844Z,65.96
2019-03-08T13:40:08.863Z,64.84
2019-03-08T13:45:04.315Z,67.05
2019-03-08T13:50:07.994Z,68.12
2019-03-08T13:55:09.048Z,66.52
2019-03-08T14:00:03.890Z,65.59
2019-03-08T14:05:08.482Z,65.1
2019-03-08T14:10:07.244Z,65.59
2019-03-08T14:15:03.395Z,64.27
2019-03-08T14:20:07.640Z,65.03
2019-03-08T14:25:08.118Z,66.28
2019-03-08T14:30:03.241Z,66.23
2019-03-08T14:35:07.633Z,65.18
2019-03-08T14:40:06.759Z,65.6
2019-03-08T14:45:08.869Z,66.06
2019-03-08T14:50:05.920Z,67.83
2019-03-08T14:55:07.452Z,67.22
2019-03-08T15:00:03.338Z,66.42
2019-03-08T15:05:15.378Z,66.7
2019-03-08T15:10:10.474Z,66.84
2019-03-08T15:15:02.954Z,67.74
2019-03-08T15:20:14.835Z,67.13
2019-03-08T15:25:14.938Z,70.11
2019-03-08T15:30:02.496Z,71.6
2019-03-08T15:35:06.208Z,70.6
2019-03-08T15:40:07.679Z,70
2019-03-08T15:45:07.127Z,70.24
2019-03-08T15:50:08.241Z,71.61
2019-03-08T15:55:07.988Z,72.72
2019-03-08T16:00:02.774Z,72.53
2019-03-08T16:05:06.633Z,72.24
2019-03-08T16:10:05.642Z,72.41
2019-03-08T16:15:03.143Z,74.77
2019-03-08T16:20:05.948Z,75.36
2019-03-08T16:25:08.742Z,76.35
2019-03-08T16:30:10.651Z,75.66
2019-03-08T16:35:07.765Z,75.59
2019-03-08T16:40:07.783Z,81.06
2019-03-08T16:45:03.105Z,85.59
2019-03-08T16:50:06.905Z,88.15
2019-03-08T16:55:06.296Z,88.66
2019-03-08T17:00:03.728Z,89.31
2019-03-08T17:05:07.682Z,89.11
2019-03-08T17:10:06.118Z,89.47
2019-03-08T17:15:04.350Z,89.55
2019-03-08T17:20:07.368Z,90.05
2019-03-08T17:25:08.205Z,90.15
2019-03-08T17:30:03.768Z,91.15
2019-03-08T17:35:08.754Z,90.91
2019-03-08T17:40:07.416Z,90.18
2019-03-08T17:45:04.109Z,90.74
2019-03-08T17:50:05.652Z,90.92
2019-03-08T17:55:07.304Z,90.76
2019-03-08T18:00:04.271Z,90.66
2019-03-08T18:05:07.890Z,90.04
2019-03-08T18:10:07.325Z,89.51
2019-03-08T18:15:03.989Z,90
2019-03-08T18:20:06.500Z,89.27
2019-03-08T18:25:08.576Z,89.19
2019-03-08T18:30:04.248Z,89.1
2019-03-08T18:35:06.855Z,89.05
2019-03-08T18:40:07.486Z,88.14
2019-03-08T18:45:04.037Z,88.1
2019-03-08T18:50:06.620Z,88
2019-03-08T18:55:07.362Z,88.37
2019-03-08T19:00:04.412Z,87.72
2019-03-08T19:05:07.293Z,87.85
2019-03-08T19:10:07.164Z,88.04
2019-03-08T19:15:03.242Z,87.43
2019-03-08T19:20:06.294Z,86.54
2019-03-08T19:25:07.347Z,86.54
2019-03-08T19:30:03.793Z,86.25
2019-03-08T19:35:06.720Z,86.29
2019-03-08T19:40:06.838Z,86.01
2019-03-08T19:45:03.846Z,85.91
2019-03-08T19:50:07.191Z,85.95
2019-03-08T19:55:06.246Z,86.15
2019-03-08T20:00:03.477Z,86.5
2019-03-08T20:05:06.616Z,86.57
2019-03-08T20:10:07.180Z,86.56
2019-03-08T20:15:02.776Z,86.37
2019-03-08T20:20:07.197Z,86.55
2019-03-08T20:25:07.188Z,86.59
2019-03-08T20:30:02.807Z,86.29
2019-03-08T20:35:06.512Z,86.1
2019-03-08T20:40:06.586Z,86.3
2019-03-08T20:45:03.152Z,86.47
2019-03-08T20:50:06.151Z,86.17
2019-03-08T20:55:06.724Z,86.35
2019-03-08T21:00:03.565Z,86.49
2019-03-08T21:05:07.951Z,86.4
2019-03-08T21:10:09.110Z,86.24
2019-03-08T21:15:02.926Z,86.17
2019-03-08T21:20:06.453Z,85.88
2019-03-08T21:25:09.662Z,85.94
2019-03-08T21:30:03.443Z,85.5
2019-03-08T21:35:07.453Z,85.4
2019-03-08T21:40:08.903Z,84.89
2019-03-08T21:45:04.523Z,85.07
2019-03-08T21:50:07.411Z,84.32
2019-03-08T21:55:05.934Z,84.83
2019-03-08T22:00:02.480Z,84.03
2019-03-08T22:05:06.672Z,83.62
2019-03-08T22:10:06.087Z,82.71
2019-03-08T22:15:02.623Z,83.06
2019-03-08T22:20:04.416Z,81.68
2019-03-08T22:25:04.486Z,81.64
2019-03-08T22:30:02.994Z,81.63
2019-03-08T22:35:03.954Z,80.94
2019-03-08T22:40:04.786Z,80.07
2019-03-08T22:45:03.826Z,80.06
2019-03-08T22:50:05.604Z,80.21
2019-03-08T22:55:06.127Z,79.53
2019-03-08T23:00:03.160Z,79.26
2019-03-08T23:05:05.998Z,79.16
2019-03-08T23:10:05.295Z,79.24
2019-03-08T23:15:04.398Z,79.93
2019-03-08T23:20:06.939Z,79.91
2019-03-08T23:25:07.156Z,79.29
2019-03-08T23:30:03.730Z,79.37
2019-03-08T23:35:06.431Z,79.03
2019-03-08T23:40:07.298Z,79.61
2019-03-08T23:45:03.984Z,79.12
2019-03-08T23:50:06.559Z,79.25
2019-03-08T23:55:07.875Z,79.41
